Huvudsida
METAR-TAF:

METAR-TAF

Flygplatser :

Fasa, Iran

latitud: 28-58N, longitud: 053-41E, höjd: 1383 m

Aktuellt väderrapport

Denna rapport gjordes för 25 minuter sedan, klockan 22:00 UTC
Stilla vind
Temperatur 12°C
Fuktighet 88%
Tryck 1017 hPa
Sikt 10 km eller mer
Inga moln under 1 500 m eller inga cumulonimbus

METAR: OISF 082200Z 00000KT CAVOK 12/10 Q1016 A3002

Tid: 02:55 (22:25 UTC)


TAF: saknas

Aktuella väderrapporter och prognoser från 4000 flygplatser (METAR- och TAF-rapporter).

De tillgängliga stationerna syns som gula och röda prickar på kartan.

För musen över prickarna för att se namnen på stationerna.

Klicka sedan för att få väderrapporter och prognoser.

För att ändra kartan: Klicka på de gröna knapparna med ett svart kors på för att zooma in; den gröna knappen med ett streck på för att zooma ut; eller på de gröna pilarna för angränsande kartor.


METAR-TAF: